Terminal Aerodrome Forecast
Issued by NWS

Home | Current Version | Previous Version | Text Only | Print | Product List | Glossary On
Versions: 1 2 3 4 5 6 7 8 9 10 11 12 13 14 15
000
FTUS45 KRIW 061740
TAFCOD
TAF
KCOD 061740Z 0618/0718 04005KT P6SM OVC040
     FM062100 05006KT P6SM VCTS BKN040CB
     FM070400 VRB05KT P6SM BKN050
     FM070800 14006KT P6SM SCT070 SCT200
     FM071100 18005KT P6SM FEW080
      AMD LTD TO CLD VIS AND WIND=

USA.gov is the U.S. government's official web portal to all federal, state and local government web resources and services.